Time;durP1;ratioP1;P1;durP2;ratioP2;P2;SDS_P1;SDS_P2;PMS_P1;PMS_P2;Temp;Humidity;BMP_temperature;BMP_pressure;BME280_temperature;BME280_humidity;BME280_pressure;Samples;Min_cycle;Max_cycle;Signal;HPM_P1;HPM_P2
2023/12/01 00:01:33;;;;;;;4.40;0.95;;;19.60;71.50;;;;;;7398189;19;19922;-73
2023/12/01 00:03:58;;;;;;;6.15;1.10;;;19.60;71.20;;;;;;7401208;19;19919;-71
2023/12/01 00:06:24;;;;;;;4.45;0.88;;;19.50;72.50;;;;;;7401549;19;19919;-73
2023/12/01 00:08:50;;;;;;;4.10;1.00;;;19.40;72.50;;;;;;7401649;19;19923;-72
2023/12/01 00:11:16;;;;;;;5.03;1.00;;;19.40;73.20;;;;;;7398193;19;19929;-73
2023/12/01 00:13:42;;;;;;;4.60;1.40;;;19.40;73.00;;;;;;7399578;19;19919;-73
2023/12/01 00:16:08;;;;;;;3.85;0.80;;;19.40;73.00;;;;;;7400101;19;20618;-73
2023/12/01 00:18:34;;;;;;;5.47;1.17;;;19.40;72.50;;;;;;7397464;19;19922;-73
2023/12/01 00:20:59;;;;;;;6.45;1.45;;;19.40;72.90;;;;;;7391722;19;19915;-74
2023/12/01 00:23:25;;;;;;;3.90;0.90;;;19.30;73.70;;;;;;7392284;19;19915;-73
2023/12/01 00:25:51;;;;;;;3.17;0.65;;;19.40;73.90;;;;;;7398796;19;19926;-73
2023/12/01 00:28:17;;;;;;;5.60;0.90;;;19.20;74.40;;;;;;7384902;19;20374;-72
2023/12/01 00:30:43;;;;;;;9.10;1.10;;;19.20;75.00;;;;;;7395944;19;19927;-72
2023/12/01 00:33:08;;;;;;;5.65;0.80;;;19.10;76.10;;;;;;7396195;19;19926;-72
2023/12/01 00:35:34;;;;;;;5.10;1.25;;;19.10;77.20;;;;;;7398518;19;19919;-72
2023/12/01 00:38:00;;;;;;;6.38;1.45;;;19.00;78.80;;;;;;7394668;19;19974;-71
2023/12/01 00:40:25;;;;;;;3.13;1.00;;;18.90;79.60;;;;;;7400108;19;19918;-72
2023/12/01 00:42:51;;;;;;;6.03;1.48;;;18.80;81.10;;;;;;7399126;19;19918;-72
2023/12/01 00:45:17;;;;;;;5.55;1.05;;;18.80;82.20;;;;;;7400896;19;20003;-72
2023/12/01 00:47:43;;;;;;;5.50;1.48;;;18.80;83.20;;;;;;7401540;19;19911;-72
2023/12/01 00:50:09;;;;;;;8.77;1.20;;;18.70;84.30;;;;;;7399391;19;19919;-72
2023/12/01 00:52:34;;;;;;;9.18;2.45;;;18.60;85.70;;;;;;7400612;19;19918;-71
2023/12/01 00:55:00;;;;;;;8.15;1.52;;;18.50;86.70;;;;;;7401047;19;19918;-72
2023/12/01 00:57:26;;;;;;;4.85;0.93;;;18.50;87.70;;;;;;7401128;19;19953;-72
2023/12/01 00:59:53;;;;;;;5.68;0.90;;;18.40;88.80;;;;;;7401958;19;20010;-72
2023/12/01 01:02:18;;;;;;;7.60;1.25;;;18.40;89.10;;;;;;7396685;19;19918;-73
2023/12/01 01:04:44;;;;;;;6.53;0.82;;;18.40;90.00;;;;;;7400649;19;19981;-72
2023/12/01 01:07:10;;;;;;;10.30;1.60;;;18.30;90.40;;;;;;7398840;19;20354;-71
2023/12/01 01:09:35;;;;;;;7.70;1.75;;;18.30;90.70;;;;;;7400783;19;19915;-73
2023/12/01 01:12:01;;;;;;;6.95;1.05;;;18.30;90.90;;;;;;7398719;19;20346;-72
2023/12/01 01:14:27;;;;;;;5.55;1.10;;;18.20;91.20;;;;;;7397584;19;20895;-71
2023/12/01 01:16:53;;;;;;;3.58;0.68;;;18.30;91.30;;;;;;7398600;19;19930;-71
2023/12/01 01:19:19;;;;;;;3.25;1.10;;;18.30;91.10;;;;;;7397917;19;19923;-73
2023/12/01 01:21:44;;;;;;;4.53;0.82;;;18.30;91.00;;;;;;7399062;19;19918;-72
2023/12/01 01:24:10;;;;;;;4.85;0.95;;;18.30;91.20;;;;;;7399519;19;19921;-72
2023/12/01 01:26:36;;;;;;;4.72;1.00;;;18.40;90.80;;;;;;7398755;19;19948;-71
2023/12/01 01:29:02;;;;;;;10.15;1.50;;;18.50;89.60;;;;;;7397189;19;19946;-72
2023/12/01 01:31:28;;;;;;;4.97;1.02;;;18.40;89.90;;;;;;7396488;19;19919;-72
2023/12/01 01:33:53;;;;;;;5.07;0.93;;;18.60;88.30;;;;;;7399164;19;19922;-72
2023/12/01 01:36:19;;;;;;;6.28;1.15;;;18.60;87.60;;;;;;7395244;19;19933;-72
2023/12/01 01:38:45;;;;;;;6.30;1.55;;;18.50;87.40;;;;;;7396746;19;19918;-72
2023/12/01 01:41:10;;;;;;;4.25;0.90;;;18.70;86.20;;;;;;7394309;19;19918;-72
2023/12/01 01:43:36;;;;;;;5.93;1.10;;;18.60;86.00;;;;;;7398757;19;19918;-71
2023/12/01 01:46:10;;;;;;;5.28;1.08;;;18.60;85.30;;;;;;7395617;19;20331;-71
2023/12/01 01:48:38;;;;;;;4.20;0.70;;;18.60;85.40;;;;;;7396566;19;19914;-71
2023/12/01 01:51:09;;;;;;;5.20;0.98;;;18.50;85.30;;;;;;7394698;19;19922;-72
2023/12/01 01:53:37;;;;;;;4.45;1.02;;;18.60;84.70;;;;;;7397171;19;20018;-72
2023/12/01 01:56:04;;;;;;;4.10;0.95;;;18.60;84.90;;;;;;7392838;19;19926;-71
2023/12/01 01:58:30;;;;;;;6.30;0.90;;;18.50;85.10;;;;;;7396920;19;20277;-72
2023/12/01 02:00:55;;;;;;;3.38;0.68;;;18.50;84.90;;;;;;7396666;19;19928;-72
2023/12/01 02:03:23;;;;;;;3.20;0.80;;;18.50;84.60;;;;;;7394508;19;19923;-73
2023/12/01 02:05:49;;;;;;;3.35;0.77;;;18.60;84.40;;;;;;7400655;19;19922;-72
2023/12/01 02:08:22;;;;;;;4.05;0.88;;;18.60;84.10;;;;;;7402785;19;19925;-71
2023/12/01 02:10:48;;;;;;;4.63;1.35;;;18.50;84.50;;;;;;7402200;19;20270;-72
2023/12/01 02:13:14;;;;;;;5.00;0.85;;;18.50;85.10;;;;;;7400148;19;19974;-72
2023/12/01 02:15:42;;;;;;;3.08;0.90;;;18.40;85.80;;;;;;7403872;19;20625;-72
2023/12/01 02:18:30;;;;;;;4.60;0.73;;;18.40;86.20;;;;;;7401243;19;19911;-71
2023/12/01 02:20:57;;;;;;;3.97;1.02;;;18.20;87.20;;;;;;7404529;19;19919;-72
2023/12/01 02:23:23;;;;;;;;;;;18.30;87.50;;;;;;7400479;19;20063;-72
2023/12/01 02:25:48;;;;;;;3.47;1.15;;;18.30;87.40;;;;;;7404604;19;20347;-72
2023/12/01 02:28:15;;;;;;;7.07;1.08;;;18.30;86.90;;;;;;7400168;19;20033;-73
2023/12/01 02:30:50;;;;;;;2.47;0.73;;;18.30;86.70;;;;;;7399700;19;19923;-73
2023/12/01 02:33:17;;;;;;;3.15;0.80;;;18.40;86.30;;;;;;7400240;19;19927;-72
2023/12/01 02:35:51;;;;;;;4.63;0.75;;;18.40;85.60;;;;;;7402738;19;19998;-72
2023/12/01 02:38:18;;;;;;;3.85;1.13;;;18.30;86.40;;;;;;7396634;19;19956;-71
2023/12/01 02:40:49;;;;;;;8.02;1.10;;;18.30;86.80;;;;;;7402177;19;20289;-72
2023/12/01 02:43:16;;;;;;;4.00;1.42;;;18.10;87.00;;;;;;7399676;19;19923;-72
2023/12/01 02:45:42;;;;;;;4.55;1.10;;;17.90;88.60;;;;;;7402597;19;19929;-72
2023/12/01 02:48:08;;;;;;;7.82;1.70;;;17.80;90.30;;;;;;7399337;19;19982;-71
2023/12/01 02:50:35;;;;;;;6.82;1.25;;;17.70;91.00;;;;;;7401035;19;19921;-73
2023/12/01 02:53:01;;;;;;;7.80;1.20;;;17.60;91.50;;;;;;7402633;19;20330;-72
2023/12/01 02:55:27;;;;;;;6.30;1.35;;;17.50;92.10;;;;;;7403203;19;19922;-72
2023/12/01 02:57:54;;;;;;;5.28;1.65;;;17.50;92.60;;;;;;7399747;19;20232;-72
2023/12/01 03:00:22;;;;;;;4.30;1.05;;;17.50;93.00;;;;;;7400656;19;20259;-72
2023/12/01 03:02:50;;;;;;;6.32;1.33;;;17.50;93.20;;;;;;7400373;19;20342;-72
2023/12/01 03:05:16;;;;;;;4.60;1.00;;;17.50;93.00;;;;;;7397995;19;19915;-72
2023/12/01 03:07:42;;;;;;;3.85;1.00;;;17.50;93.00;;;;;;7399315;19;20354;-71
2023/12/01 03:10:09;;;;;;;4.72;0.70;;;17.60;92.50;;;;;;7400776;19;19915;-71
2023/12/01 03:12:39;;;;;;;5.45;1.55;;;17.60;91.80;;;;;;7402981;19;19907;-74
2023/12/01 03:15:09;;;;;;;6.53;1.23;;;17.60;92.10;;;;;;7398320;19;19919;-72
2023/12/01 03:17:37;;;;;;;3.47;1.00;;;17.60;91.80;;;;;;7401170;19;20406;-72
2023/12/01 03:20:09;;;;;;;;;;;17.50;91.60;;;;;;7401450;19;19928;-71
2023/12/01 03:22:37;;;;;;;5.80;1.20;;;17.50;92.20;;;;;;7400066;19;20323;-71
2023/12/01 03:25:09;;;;;;;3.85;1.35;;;17.40;92.20;;;;;;7401311;19;20387;-71
2023/12/01 03:27:45;;;;;;;4.32;1.10;;;17.30;92.70;;;;;;7401727;19;19945;-72
2023/12/01 03:30:19;;;;;;;7.35;1.40;;;17.30;92.70;;;;;;7400539;19;19928;-73
2023/12/01 03:32:50;;;;;;;5.32;1.42;;;17.20;93.00;;;;;;7401078;19;19923;-72
2023/12/01 03:35:18;;;;;;;5.00;1.33;;;17.20;93.40;;;;;;7399910;19;19926;-72
2023/12/01 03:37:44;;;;;;;4.90;1.08;;;17.10;93.50;;;;;;7401244;19;19922;-71
2023/12/01 03:40:13;;;;;;;6.43;1.45;;;17.10;94.10;;;;;;7400631;19;19915;-72
2023/12/01 03:42:43;;;;;;;4.40;1.00;;;17.00;94.00;;;;;;7398063;19;20654;-71
2023/12/01 03:45:12;;;;;;;3.92;0.90;;;17.00;94.30;;;;;;7400317;19;20410;-72
2023/12/01 03:47:39;;;;;;;4.40;1.13;;;17.00;94.10;;;;;;7400066;19;19950;-72
2023/12/01 03:50:11;;;;;;;4.43;0.80;;;17.00;94.20;;;;;;7400605;19;19981;-72
2023/12/01 03:52:41;;;;;;;3.22;0.95;;;17.00;94.20;;;;;;7399861;19;20603;-72
2023/12/01 03:55:07;;;;;;;4.88;0.85;;;17.10;93.50;;;;;;7397345;19;19918;-73
2023/12/01 03:57:33;;;;;;;5.22;1.20;;;17.00;94.10;;;;;;7399378;19;20254;-72
2023/12/01 03:59:58;;;;;;;3.47;1.05;;;17.10;93.90;;;;;;7400707;19;19921;-72
2023/12/01 04:02:24;;;;;;;3.40;0.90;;;17.20;93.40;;;;;;7399032;19;19918;-72
2023/12/01 04:04:50;;;;;;;4.05;1.35;;;17.30;92.50;;;;;;7400884;19;20254;-72
2023/12/01 04:07:16;;;;;;;5.28;1.10;;;17.10;92.60;;;;;;7398180;19;19929;-72
2023/12/01 04:09:43;;;;;;;4.82;1.00;;;17.30;92.70;;;;;;7401021;19;19918;-72
2023/12/01 04:12:08;;;;;;;3.10;0.82;;;17.30;91.90;;;;;;7396503;19;19919;-72
2023/12/01 04:14:36;;;;;;;4.00;1.20;;;17.20;92.20;;;;;;7401247;19;20014;-72
2023/12/01 04:17:08;;;;;;;3.80;1.13;;;17.10;92.70;;;;;;7399704;19;19926;-72
2023/12/01 04:19:38;;;;;;;3.60;1.23;;;17.10;92.90;;;;;;7396908;19;19919;-73
2023/12/01 04:22:07;;;;;;;3.13;1.08;;;17.10;92.90;;;;;;7399869;19;19933;-71
2023/12/01 04:24:34;;;;;;;3.60;1.20;;;17.10;93.20;;;;;;7398683;19;19914;-73
2023/12/01 04:27:03;;;;;;;5.53;1.10;;;16.90;93.10;;;;;;7401029;19;20351;-72
2023/12/01 04:29:32;;;;;;;4.93;1.52;;;16.80;93.70;;;;;;7374758;19;19934;-73
2023/12/01 04:31:58;;;;;;;3.13;1.02;;;16.90;94.80;;;;;;7398752;19;20013;-73
2023/12/01 04:34:26;;;;;;;5.78;1.17;;;16.90;94.00;;;;;;7397178;19;19918;-72
2023/12/01 04:36:53;;;;;;;5.25;1.02;;;16.90;94.60;;;;;;7400935;19;19923;-72
2023/12/01 04:39:19;;;;;;;;;;;17.00;94.20;;;;;;7400783;19;19954;-72
2023/12/01 04:41:46;;;;;;;4.72;1.15;;;16.90;93.80;;;;;;7398068;19;19915;-72
2023/12/01 04:44:12;;;;;;;4.90;1.27;;;16.90;94.40;;;;;;7396925;19;19918;-72
2023/12/01 04:46:38;;;;;;;4.63;1.20;;;16.90;93.80;;;;;;7398822;19;19918;-72
2023/12/01 04:49:08;;;;;;;5.65;1.48;;;16.80;94.20;;;;;;7399007;19;19919;-72
2023/12/01 04:51:35;;;;;;;5.10;1.35;;;16.80;94.90;;;;;;7397460;19;19943;-74
2023/12/01 04:54:02;;;;;;;;;;;16.70;95.90;;;;;;7399421;19;20370;-73
2023/12/01 04:56:27;;;;;;;5.30;1.30;;;16.60;95.70;;;;;;7396923;19;19986;-73
2023/12/01 04:58:55;;;;;;;3.70;1.10;;;16.50;95.70;;;;;;7396613;19;19931;-72
2023/12/01 05:01:21;;;;;;;5.07;1.95;;;16.40;96.30;;;;;;7397582;19;19926;-72
2023/12/01 05:03:46;;;;;;;9.27;1.80;;;16.30;97.10;;;;;;7399339;19;20430;-73
2023/12/01 05:06:12;;;;;;;7.97;1.60;;;16.30;97.80;;;;;;7373420;19;19931;-72
2023/12/01 05:08:38;;;;;;;5.43;1.90;;;16.20;98.20;;;;;;7399830;19;20019;-72
2023/12/01 05:11:04;;;;;;;4.22;1.40;;;16.10;98.20;;;;;;7397826;19;19914;-72
2023/12/01 05:13:30;;;;;;;6.65;1.38;;;16.10;98.40;;;;;;7398628;19;20464;-72
2023/12/01 05:15:56;;;;;;;7.22;1.80;;;16.10;98.70;;;;;;7398883;19;19915;-72
2023/12/01 05:18:22;;;;;;;5.55;1.55;;;16.10;98.40;;;;;;7399435;19;19958;-72
2023/12/01 05:20:47;;;;;;;4.85;1.40;;;16.20;98.40;;;;;;7399125;19;19990;-72
2023/12/01 05:23:13;;;;;;;4.68;1.27;;;16.10;98.10;;;;;;7395478;19;20036;-72
2023/12/01 05:25:43;;;;;;;6.53;1.70;;;16.10;97.90;;;;;;7396038;19;21287;-73
2023/12/01 05:28:10;;;;;;;4.03;0.90;;;16.00;98.20;;;;;;7398875;19;19918;-72
2023/12/01 05:30:38;;;;;;;;;;;16.00;98.30;;;;;;7403163;19;19926;-72
2023/12/01 05:33:04;;;;;;;4.38;1.00;;;15.90;98.40;;;;;;7397086;19;19922;-72
2023/12/01 05:35:31;;;;;;;3.88;1.00;;;15.90;98.40;;;;;;7399990;19;19929;-72
2023/12/01 05:37:58;;;;;;;4.95;1.10;;;15.80;98.80;;;;;;7377370;19;19919;-72
2023/12/01 05:40:30;;;;;;;4.05;1.05;;;15.90;98.80;;;;;;7398071;19;19946;-73
2023/12/01 05:42:57;;;;;;;4.32;1.20;;;15.90;98.60;;;;;;7405492;19;19925;-73
2023/12/01 05:45:26;;;;;;;2.60;0.98;;;15.90;98.60;;;;;;7380515;19;19938;-72
2023/12/01 05:47:53;;;;;;;4.05;1.40;;;15.90;98.50;;;;;;7404303;19;20708;-72
2023/12/01 05:50:20;;;;;;;;;;;15.90;98.60;;;;;;7403710;19;19922;-72
2023/12/01 05:52:47;;;;;;;4.45;1.10;;;15.90;98.70;;;;;;7402513;19;19957;-73
2023/12/01 05:55:15;;;;;;;4.05;1.23;;;15.90;98.70;;;;;;7402330;19;19918;-72
2023/12/01 05:57:48;;;;;;;4.35;1.20;;;15.90;99.00;;;;;;7403079;19;19918;-71
2023/12/01 06:00:17;;;;;;;3.03;1.10;;;15.80;99.00;;;;;;7403788;19;19915;-72
2023/12/01 06:02:47;;;;;;;3.17;0.80;;;15.70;99.10;;;;;;7401507;19;19982;-72
2023/12/01 06:05:15;;;;;;;3.70;1.25;;;15.70;99.50;;;;;;7403744;19;20723;-72
2023/12/01 06:07:42;;;;;;;5.28;0.88;;;15.80;99.90;;;;;;7404107;19;19915;-72
2023/12/01 06:10:09;;;;;;;3.10;1.08;;;15.90;99.90;;;;;;7403137;19;19914;-72
2023/12/01 06:12:37;;;;;;;4.93;1.15;;;16.00;99.20;;;;;;7403284;19;19929;-72
2023/12/01 06:15:05;;;;;;;4.75;0.98;;;16.00;99.50;;;;;;7403577;19;19926;-73
2023/12/01 06:17:31;;;;;;;4.50;1.25;;;16.00;99.00;;;;;;7404981;19;19918;-72
2023/12/01 06:19:57;;;;;;;5.68;1.30;;;16.00;98.90;;;;;;7401635;19;20421;-73
2023/12/01 06:22:23;;;;;;;3.58;1.05;;;16.00;99.10;;;;;;7402723;19;19935;-72
2023/12/01 06:24:49;;;;;;;4.32;1.40;;;15.90;99.50;;;;;;7405661;19;20355;-73
2023/12/01 06:27:15;;;;;;;5.72;1.42;;;15.90;99.90;;;;;;7401443;19;20298;-72
2023/12/01 06:29:41;;;;;;;5.40;1.25;;;15.90;99.90;;;;;;7404106;19;20347;-72
2023/12/01 06:32:07;;;;;;;4.57;1.40;;;15.90;99.90;;;;;;7404228;19;19914;-72
2023/12/01 06:34:33;;;;;;;7.07;1.77;;;15.90;99.90;;;;;;7403443;19;19970;-71
2023/12/01 06:36:59;;;;;;;6.22;2.65;;;15.90;99.90;;;;;;7404484;19;19920;-72
2023/12/01 06:39:28;;;;;;;9.48;1.60;;;15.80;99.90;;;;;;7400984;19;19914;-72
2023/12/01 06:41:54;;;;;;;8.63;1.80;;;15.90;99.90;;;;;;7408220;19;19937;-73
2023/12/01 06:44:20;;;;;;;6.80;1.63;;;15.90;99.90;;;;;;7401136;19;19919;-72
2023/12/01 06:46:46;;;;;;;12.70;2.80;;;16.00;99.90;;;;;;7403076;19;20281;-72
2023/12/01 06:49:12;;;;;;;12.63;2.13;;;16.10;99.90;;;;;;7400406;19;19915;-73
2023/12/01 06:51:39;;;;;;;7.60;1.75;;;16.20;99.90;;;;;;7399410;19;19915;-73
2023/12/01 06:54:05;;;;;;;7.57;1.85;;;16.20;99.90;;;;;;7400208;19;20019;-72
2023/12/01 06:56:30;;;;;;;13.25;2.35;;;16.20;99.90;;;;;;7404451;19;19929;-73
2023/12/01 06:58:56;;;;;;;11.13;2.30;;;16.20;99.90;;;;;;7402869;19;19987;-73
2023/12/01 07:01:22;;;;;;;10.45;2.08;;;16.20;99.90;;;;;;7403196;19;19942;-72
2023/12/01 07:03:48;;;;;;;10.68;2.25;;;16.10;99.90;;;;;;7404605;19;19919;-72
2023/12/01 07:06:16;;;;;;;9.43;2.70;;;16.20;99.90;;;;;;7399212;19;19933;-72
2023/12/01 07:08:42;;;;;;;13.00;2.70;;;16.10;99.90;;;;;;7400520;19;19955;-72
2023/12/01 07:11:08;;;;;;;11.40;2.75;;;16.10;99.90;;;;;;7399909;19;20296;-73
2023/12/01 07:13:34;;;;;;;13.50;3.72;;;16.10;99.90;;;;;;7401750;19;20339;-73
2023/12/01 07:16:09;;;;;;;14.75;3.65;;;16.10;99.90;;;;;;7403657;19;20486;-73
2023/12/01 07:18:38;;;;;;;13.88;3.08;;;16.10;99.90;;;;;;7399448;19;19940;-72
2023/12/01 07:21:06;;;;;;;19.27;3.72;;;16.20;99.90;;;;;;7402440;19;19943;-72
2023/12/01 07:23:34;;;;;;;13.05;3.05;;;16.20;99.90;;;;;;7403867;19;19927;-73
2023/12/01 07:25:59;;;;;;;10.63;3.58;;;16.20;99.90;;;;;;7400160;19;19918;-73
2023/12/01 07:28:25;;;;;;;15.27;3.60;;;16.30;99.90;;;;;;7398600;19;19925;-74
2023/12/01 07:30:51;;;;;;;22.25;3.60;;;16.30;99.90;;;;;;7402983;19;20006;-72
2023/12/01 07:33:17;;;;;;;16.00;3.50;;;16.40;99.90;;;;;;7399474;19;19994;-72
2023/12/01 07:35:55;;;;;;;13.57;3.85;;;16.50;99.90;;;;;;7404979;19;20545;-71
2023/12/01 07:38:22;;;;;;;13.73;3.50;;;16.50;99.90;;;;;;7392071;19;19930;-73
2023/12/01 07:40:48;;;;;;;14.00;4.15;;;16.60;99.90;;;;;;7389343;19;19911;-72
2023/12/01 07:43:15;;;;;;;16.90;4.15;;;16.60;99.90;;;;;;7383095;19;19910;-72
2023/12/01 07:45:41;;;;;;;18.70;5.22;;;16.60;99.90;;;;;;7389703;19;20629;-73
2023/12/01 07:48:09;;;;;;;17.40;4.90;;;16.60;99.90;;;;;;7399383;19;19911;-72
2023/12/01 07:50:35;;;;;;;17.33;4.65;;;16.60;99.90;;;;;;7399822;19;19919;-73
2023/12/01 07:53:04;;;;;;;19.55;4.00;;;16.70;99.90;;;;;;7403353;19;19930;-73
2023/12/01 07:55:30;;;;;;;18.55;4.70;;;16.70;99.90;;;;;;7400951;19;19915;-72
2023/12/01 07:57:56;;;;;;;16.40;4.40;;;16.80;99.90;;;;;;7401574;19;19927;-73
2023/12/01 08:00:22;;;;;;;16.73;5.32;;;16.80;99.90;;;;;;7393424;19;19956;-72
2023/12/01 08:02:52;;;;;;;18.85;4.68;;;16.80;99.90;;;;;;7370772;19;19915;-73
2023/12/01 08:05:18;;;;;;;14.27;3.45;;;16.80;99.90;;;;;;7379979;19;19930;-73
2023/12/01 08:07:52;;;;;;;17.48;5.07;;;17.00;99.90;;;;;;7399739;19;20361;-72
2023/12/01 08:10:22;;;;;;;14.57;4.10;;;17.20;99.90;;;;;;7353277;19;19911;-73
2023/12/01 08:12:49;;;;;;;17.73;4.68;;;17.40;99.90;;;;;;7374694;19;24455;-73
2023/12/01 08:15:15;;;;;;;14.02;4.30;;;18.00;99.90;;;;;;7378922;19;19927;-73
2023/12/01 08:17:42;;;;;;;12.68;4.05;;;19.50;99.90;;;;;;7378700;19;19918;-73
2023/12/01 08:20:08;;;;;;;18.05;4.28;;;19.50;94.10;;;;;;7376691;19;19914;-74
2023/12/01 08:22:35;;;;;;;14.13;4.18;;;20.20;93.30;;;;;;7372811;19;20404;-73
2023/12/01 08:25:01;;;;;;;15.13;3.70;;;20.80;91.10;;;;;;7373521;19;19970;-73
2023/12/01 08:27:28;;;;;;;14.73;4.60;;;20.60;88.30;;;;;;7375902;19;19910;-73
2023/12/01 08:29:54;;;;;;;20.60;4.75;;;20.70;88.10;;;;;;7380886;19;19911;-73
2023/12/01 08:32:20;;;;;;;17.08;3.88;;;21.00;85.60;;;;;;7376258;19;20358;-73
2023/12/01 08:34:46;;;;;;;15.68;4.45;;;21.00;85.80;;;;;;7379941;19;19914;-73
2023/12/01 08:37:11;;;;;;;15.13;3.95;;;21.00;85.90;;;;;;7380677;19;20002;-72
2023/12/01 08:39:37;;;;;;;18.27;4.70;;;20.30;85.30;;;;;;7388430;19;19938;-73
2023/12/01 08:42:04;;;;;;;15.35;4.15;;;19.60;91.10;;;;;;7389205;19;19919;-72
2023/12/01 08:44:30;;;;;;;14.38;4.28;;;19.10;93.00;;;;;;7377104;19;19914;-72
2023/12/01 08:46:56;;;;;;;15.10;5.03;;;18.70;95.50;;;;;;7380629;19;20521;-72
2023/12/01 08:49:21;;;;;;;13.40;4.55;;;18.50;96.20;;;;;;7378687;19;19978;-73
2023/12/01 08:51:47;;;;;;;13.48;4.10;;;18.30;97.60;;;;;;7371779;19;19931;-73
2023/12/01 08:54:13;;;;;;;14.88;4.13;;;18.20;98.40;;;;;;7381234;19;19970;-73
2023/12/01 08:56:41;;;;;;;11.85;4.10;;;18.10;98.70;;;;;;7377712;19;19946;-73
2023/12/01 08:59:07;;;;;;;15.50;4.43;;;18.00;99.90;;;;;;7376080;19;19926;-72
2023/12/01 09:01:33;;;;;;;15.63;4.18;;;18.00;99.90;;;;;;7376276;19;19918;-74
2023/12/01 09:03:59;;;;;;;16.70;4.65;;;18.10;99.20;;;;;;7375368;19;20048;-73
2023/12/01 09:06:24;;;;;;;32.10;14.57;;;18.20;98.10;;;;;;7372464;19;20331;-73
2023/12/01 09:08:50;;;;;;;17.60;6.13;;;18.30;98.60;;;;;;7376810;19;19918;-73
2023/12/01 09:11:16;;;;;;;14.77;4.68;;;19.00;97.10;;;;;;7368040;19;19929;-73
2023/12/01 09:13:42;;;;;;;13.10;4.03;;;19.50;94.00;;;;;;7373131;19;20276;-72
2023/12/01 09:16:08;;;;;;;16.23;4.65;;;19.80;92.50;;;;;;7360427;19;19978;-72
2023/12/01 09:18:34;;;;;;;14.15;4.90;;;20.40;90.50;;;;;;7379439;19;19950;-73
2023/12/01 09:21:01;;;;;;;13.48;4.57;;;20.50;87.20;;;;;;7378270;19;19915;-73
2023/12/01 09:23:27;;;;;;;11.65;4.22;;;20.20;85.90;;;;;;7384392;19;19922;-74
2023/12/01 09:25:53;;;;;;;14.95;5.50;;;20.60;84.30;;;;;;7386012;19;19932;-73
2023/12/01 09:28:19;;;;;;;12.93;4.60;;;20.80;85.30;;;;;;7396287;19;19934;-73
2023/12/01 09:30:44;;;;;;;15.90;5.65;;;21.00;80.60;;;;;;7381177;19;19907;-72
2023/12/01 09:33:10;;;;;;;14.93;4.90;;;20.90;80.20;;;;;;7381650;19;19922;-72
2023/12/01 09:35:36;;;;;;;17.42;6.22;;;21.00;78.80;;;;;;7375415;19;19926;-72
2023/12/01 09:38:02;;;;;;;15.55;5.43;;;20.90;78.70;;;;;;7401586;19;19982;-72
2023/12/01 09:40:28;;;;;;;14.07;5.63;;;21.00;80.40;;;;;;7399780;19;19918;-73
2023/12/01 09:42:54;;;;;;;18.00;5.80;;;21.40;78.60;;;;;;7403680;19;19922;-73
2023/12/01 09:45:21;;;;;;;16.80;5.18;;;22.10;72.70;;;;;;7382984;19;19962;-73
2023/12/01 09:47:55;;;;;;;17.13;5.40;;;22.50;68.90;;;;;;7377664;19;19929;-74
2023/12/01 09:50:22;;;;;;;17.10;6.72;;;22.90;67.80;;;;;;7378685;19;20258;-74
2023/12/01 09:52:47;;;;;;;16.00;4.90;;;23.10;62.70;;;;;;7388731;19;19929;-72
2023/12/01 09:55:13;;;;;;;16.25;5.57;;;22.70;63.70;;;;;;7374376;19;19974;-74
2023/12/01 09:57:41;;;;;;;19.20;5.95;;;22.10;67.70;;;;;;7378798;19;19915;-74
2023/12/01 10:00:11;;;;;;;22.50;5.57;;;21.80;69.20;;;;;;7382155;19;19927;-72
2023/12/01 10:02:41;;;;;;;18.73;5.07;;;21.30;73.60;;;;;;7383480;19;20588;-72
2023/12/01 10:05:08;;;;;;;17.08;5.80;;;20.90;78.40;;;;;;7378521;19;19982;-72
2023/12/01 10:07:34;;;;;;;16.88;4.60;;;20.80;82.40;;;;;;7379900;19;20270;-73
2023/12/01 10:10:21;;;;;;;17.73;5.07;;;20.80;79.70;;;;;;7380154;19;20258;-72
2023/12/01 10:13:04;;;;;;;15.63;5.05;;;20.80;82.80;;;;;;7386748;19;19922;-74
2023/12/01 10:15:32;;;;;;;16.73;4.75;;;20.60;79.30;;;;;;7371885;19;19922;-73
2023/12/01 10:18:19;;;;;;;18.10;4.28;;;20.20;84.00;;;;;;7384066;19;19911;-72
2023/12/01 10:21:07;;;;;;;17.35;4.50;;;20.20;88.60;;;;;;7377124;19;19919;-73
2023/12/01 10:23:33;;;;;;;18.13;4.82;;;20.20;88.80;;;;;;7372725;19;19954;-72
2023/12/01 10:26:03;;;;;;;15.55;5.00;;;20.10;90.90;;;;;;7381853;19;19935;-72
2023/12/01 10:28:40;;;;;;;17.02;5.85;;;20.00;91.40;;;;;;7377018;19;19922;-73
2023/12/01 10:31:06;;;;;;;30.55;5.72;;;19.90;90.80;;;;;;7380592;19;19922;-73
2023/12/01 10:33:33;;;;;;;;;;;20.60;89.10;;;;;;7384205;19;19918;-73
2023/12/01 10:36:01;;;;;;;18.15;5.35;;;21.10;82.30;;;;;;7374561;19;19922;-72
2023/12/01 10:38:28;;;;;;;19.27;4.30;;;20.80;81.70;;;;;;7377148;19;20323;-72
2023/12/01 10:40:54;;;;;;;17.48;4.88;;;20.30;84.40;;;;;;7377836;19;19915;-73
2023/12/01 10:43:21;;;;;;;18.35;5.30;;;19.80;88.20;;;;;;7381786;19;20338;-73
2023/12/01 10:45:49;;;;;;;16.85;5.20;;;19.20;91.70;;;;;;7379356;19;19922;-73
2023/12/01 10:48:18;;;;;;;16.05;4.95;;;19.10;94.10;;;;;;7373289;19;19926;-72
2023/12/01 10:50:44;;;;;;;18.63;5.20;;;19.20;94.20;;;;;;7383131;19;19923;-72
2023/12/01 10:53:12;;;;;;;17.50;5.22;;;19.20;94.30;;;;;;7376489;19;20275;-73
2023/12/01 10:55:38;;;;;;;14.13;4.53;;;19.10;94.00;;;;;;7377848;19;19911;-72
2023/12/01 10:58:08;;;;;;;16.33;5.55;;;19.70;93.00;;;;;;7373800;19;19947;-72
2023/12/01 11:00:34;;;;;;;20.63;5.20;;;20.20;90.90;;;;;;7375284;19;19924;-72
2023/12/01 11:03:03;;;;;;;18.23;5.43;;;20.10;91.10;;;;;;7372496;19;19918;-74
2023/12/01 11:05:31;;;;;;;21.73;5.80;;;20.20;90.00;;;;;;7378694;19;19910;-74
2023/12/01 11:08:02;;;;;;;18.42;5.80;;;20.60;87.90;;;;;;7371051;19;20460;-72
2023/12/01 11:10:28;;;;;;;21.95;5.38;;;20.70;89.10;;;;;;7375378;19;19931;-73
2023/12/01 11:13:22;;;;;;;14.68;4.75;;;20.60;89.40;;;;;;7377585;19;19923;-72
2023/12/01 11:15:50;;;;;;;13.75;5.28;;;19.80;90.10;;;;;;7372618;19;19922;-73
2023/12/01 11:18:16;;;;;;;16.33;4.93;;;19.40;93.00;;;;;;7370259;19;21824;-74
2023/12/01 11:20:44;;;;;;;13.90;3.83;;;19.10;94.30;;;;;;7374610;19;19999;-72
2023/12/01 11:23:13;;;;;;;20.70;5.28;;;19.10;94.40;;;;;;7374469;19;19919;-73
2023/12/01 11:25:48;;;;;;;12.95;4.50;;;19.10;94.30;;;;;;7376096;19;19918;-72
2023/12/01 11:31:13;;;;;;;19.33;5.05;;;18.80;95.60;;;;;;7373194;19;19942;-72
2023/12/01 11:33:40;;;;;;;16.10;4.82;;;18.90;95.30;;;;;;7376240;19;20057;-72
2023/12/01 11:36:29;;;;;;;13.55;5.07;;;18.90;95.00;;;;;;7376787;19;20335;-73
2023/12/01 11:41:42;;;;;;;16.48;4.68;;;18.90;94.80;;;;;;7376611;19;19918;-73
2023/12/01 11:44:14;;;;;;;14.10;4.32;;;18.80;95.30;;;;;;7373335;19;19907;-72
2023/12/01 11:46:41;;;;;;;19.10;4.90;;;18.70;96.30;;;;;;7369499;19;19923;-72
2023/12/01 11:49:07;;;;;;;14.10;4.80;;;18.60;96.00;;;;;;7354924;19;19927;-72
2023/12/01 11:51:33;;;;;;;14.45;4.60;;;18.60;97.40;;;;;;7373325;19;19926;-72
2023/12/01 11:54:03;;;;;;;15.60;5.03;;;18.70;96.80;;;;;;7375639;19;19922;-73
2023/12/01 11:56:33;;;;;;;18.25;5.20;;;18.90;95.90;;;;;;7381659;19;19919;-72
2023/12/01 11:58:59;;;;;;;13.98;5.43;;;18.90;95.60;;;;;;7399606;19;19915;-73
2023/12/01 12:01:25;;;;;;;20.52;5.68;;;19.00;94.90;;;;;;7394932;19;19944;-73
2023/12/01 12:03:55;;;;;;;21.50;5.00;;;18.90;95.20;;;;;;7398972;19;19914;-73
2023/12/01 12:06:21;;;;;;;15.60;4.68;;;19.10;95.70;;;;;;7397944;19;19922;-73
2023/12/01 12:08:48;;;;;;;17.40;5.10;;;19.40;94.50;;;;;;7400635;19;19946;-72
2023/12/01 12:11:15;;;;;;;22.95;6.38;;;19.40;92.80;;;;;;7396465;19;19918;-73
2023/12/01 12:13:42;;;;;;;17.95;6.15;;;19.10;93.40;;;;;;7369624;19;19919;-74
2023/12/01 12:16:08;;;;;;;13.40;4.72;;;19.20;94.50;;;;;;7380099;19;19922;-73
2023/12/01 12:18:34;;;;;;;16.08;5.53;;;19.00;94.30;;;;;;7376881;19;20007;-73
2023/12/01 12:21:04;;;;;;;16.90;4.68;;;19.00;95.00;;;;;;7348767;19;19922;-74
2023/12/01 12:23:31;;;;;;;15.32;4.60;;;18.90;93.90;;;;;;7372861;19;19922;-73
2023/12/01 12:26:22;;;;;;;14.85;4.53;;;18.90;94.20;;;;;;7374824;19;19922;-74
2023/12/01 12:28:53;;;;;;;15.55;4.38;;;18.90;93.90;;;;;;7381016;19;19907;-73
2023/12/01 12:31:20;;;;;;;14.48;4.25;;;19.00;94.50;;;;;;7377898;19;20715;-73
2023/12/01 12:33:48;;;;;;;20.63;4.90;;;18.90;93.50;;;;;;7372064;19;19919;-72
2023/12/01 12:36:14;;;;;;;16.90;4.93;;;19.10;93.60;;;;;;7374462;19;19919;-73
2023/12/01 12:38:40;;;;;;;16.92;4.68;;;19.20;92.20;;;;;;7376427;19;19955;-71
2023/12/01 12:41:27;;;;;;;13.38;4.53;;;19.30;91.90;;;;;;7373163;19;19922;-73
2023/12/01 12:43:54;;;;;;;13.07;4.22;;;19.50;91.00;;;;;;7375406;19;19925;-72
2023/12/01 12:46:21;;;;;;;15.18;4.32;;;19.50;90.80;;;;;;7380665;19;19917;-73
2023/12/01 12:48:47;;;;;;;;;;;19.40;92.30;;;;;;7379478;19;20270;-73
2023/12/01 12:51:17;;;;;;;14.45;4.80;;;19.40;92.90;;;;;;7390169;19;20348;-74